CST,Max TemperatureF,Mean TemperatureF,Min TemperatureF,Max Dew PointF,MeanDew PointF,Min DewpointF,Max Humidity, Mean Humidity, Min Humidity, Max Sea Level PressureIn, Mean Sea Level PressureIn, Min Sea Level PressureIn, Max VisibilityMiles, Mean VisibilityMiles, Min VisibilityMiles, Max Wind SpeedMPH, Mean Wind SpeedMPH, Max Gust SpeedMPH,PrecipitationIn, CloudCover, Events, WindDirDegrees
2013-2-1,23,8,-7,18,2,-13,93,73,57,30.32,30.11,29.93,10,10,10,20,10,25,0.00,4,,216
2013-2-2,35,25,15,30,15,7,93,77,63,30.14,30.06,29.96,10,8,0,34,10,46,0.01,7,Snow,289
2013-2-3,42,26,10,30,19,7,87,75,57,30.14,29.96,29.74,10,10,10,21,12,31,0.00,2,,225
2013-2-4,24,18,12,19,14,7,86,80,73,30.02,29.91,29.78,10,10,4,16,9,24,0.00,7,Snow,330
2013-2-5,42,32,21,28,25,19,93,78,57,30.06,29.89,29.72,10,10,7,17,10,23,0.00,2,,301
2013-2-6,42,33,24,34,29,21,93,78,61,30.03,29.91,29.80,10,9,7,25,7,31,0.00,2,,169
2013-2-7,37,30,24,30,25,19,93,84,74,30.24,30.08,29.91,10,6,2,15,9,22,0.00,7,,359
2013-2-8,35,28,21,25,21,19,93,84,56,30.30,30.21,30.09,10,8,1,15,6,21,0.00,6,,139
2013-2-9,48,37,26,34,28,23,93,77,50,30.10,29.89,29.70,10,7,2,21,13,28,0.01,5,Rain,158
2013-2-10,39,34,28,37,31,23,93,89,80,29.71,29.40,29.20,10,6,2,34,14,43,0.26,8,Rain-Snow,125
2013-2-11,26,25,24,23,21,19,86,81,80,30.08,29.95,29.62,10,10,4,36,26,44,0.00,8,Snow,303
2013-2-12,37,27,17,27,21,14,86,78,60,30.08,29.94,29.85,10,10,10,16,5,18,0.00,0,,276
2013-2-13,46,35,24,36,27,21,87,78,57,29.85,29.74,29.64,10,10,10,17,6,,0.00,2,,264
2013-2-14,39,27,15,30,21,3,93,73,49,30.24,29.97,29.72,10,10,5,29,15,32,0.00,5,Snow,329
2013-2-15,24,17,10,19,11,7,92,77,63,30.32,30.29,30.25,10,9,2,13,7,,0.00,3,Snow,327
2013-2-16,35,22,10,27,17,7,92,78,56,30.27,30.09,29.99,10,10,10,10,3,,0.00,2,,186
2013-2-17,50,36,21,30,24,18,86,67,40,29.99,29.75,29.54,10,10,10,18,8,25,0.00,1,,169
2013-2-18,37,24,10,30,18,1,87,71,54,29.99,29.75,29.56,10,10,4,32,17,38,0.00,5,Snow,318
2013-2-19,15,8,1,3,-2,-6,78,64,45,30.36,30.20,30.00,10,10,4,25,19,36,0.00,2,Snow,325
2013-2-20,24,11,-2,9,-2,-9,78,57,31,30.37,30.30,30.22,10,10,10,13,6,18,0.00,3,,97
2013-2-21,24,19,14,18,11,7,93,71,46,30.27,30.10,29.91,10,7,0,20,10,25,0.00,6,Snow,83
2013-2-22,24,17,8,19,15,7,93,85,74,29.94,29.91,29.86,10,5,1,16,10,16,0.00,6,Snow,331
2013-2-23,24,14,3,18,10,0,92,83,69,29.93,29.85,29.80,10,7,0,7,3,,0.01,1,Fog-Snow,119
2013-2-24,26,19,12,25,17,9,93,85,79,30.07,29.97,29.86,7,3,0,7,4,,0.00,6,Fog,54
2013-2-25,28,24,19,25,22,18,100,90,80,30.08,30.03,29.95,7,3,0,8,3,,0.00,8,Fog,26
2013-2-26,32,26,19,27,22,18,100,87,74,29.98,29.90,29.83,5,3,0,14,7,20,0.00,5,Fog-Snow,24
2013-2-27,35,28,21,23,20,16,93,74,56,30.07,29.97,29.88,10,9,4,20,14,28,0.00,1,,336
2013-2-28,28,24,21,21,20,18,93,81,74,30.21,30.16,30.07,10,10,7,17,11,23,0.00,8,,340